createdAt,value
2017-12-06T00:00:14.521Z,9.37
2017-12-06T00:02:40.921Z,10.13
2017-12-06T00:05:07.281Z,9.40
2017-12-06T00:07:33.736Z,9.60
2017-12-06T00:10:00.077Z,10.07
2017-12-06T00:12:32.576Z,9.37
2017-12-06T00:15:05.024Z,9.40
2017-12-06T00:17:31.384Z,9.30
2017-12-06T00:19:57.751Z,9.10
2017-12-06T00:22:24.165Z,8.93
2017-12-06T00:24:50.597Z,8.57
2017-12-06T00:27:17.081Z,8.00
2017-12-06T00:29:43.473Z,8.77
2017-12-06T00:32:09.820Z,8.30
2017-12-06T00:34:36.155Z,8.23
2017-12-06T00:37:02.553Z,7.87
2017-12-06T00:39:28.912Z,8.10
2017-12-06T00:41:55.236Z,7.43
2017-12-06T00:44:22.992Z,7.67
2017-12-06T00:46:49.468Z,7.53
2017-12-06T00:49:17.796Z,7.30
2017-12-06T00:51:44.184Z,6.90
2017-12-06T00:54:10.649Z,6.70
2017-12-06T00:56:37.188Z,6.90
2017-12-06T00:59:05.014Z,7.03
2017-12-06T01:01:31.352Z,6.23
2017-12-06T01:03:57.696Z,6.50
2017-12-06T01:06:24.113Z,6.57
2017-12-06T01:08:50.476Z,7.07
2017-12-06T01:11:16.829Z,6.67
2017-12-06T01:13:43.233Z,7.13
2017-12-06T01:16:09.740Z,7.07
2017-12-06T01:18:36.201Z,6.77
2017-12-06T01:21:02.740Z,6.33
2017-12-06T01:23:29.245Z,6.93
2017-12-06T01:25:55.781Z,7.13
2017-12-06T01:28:22.264Z,6.40
2017-12-06T01:30:48.696Z,6.07
2017-12-06T01:33:15.186Z,7.03
2017-12-06T01:35:41.723Z,6.03
2017-12-06T01:38:08.137Z,7.07
2017-12-06T01:40:34.567Z,6.57
2017-12-06T01:43:01.120Z,6.50
2017-12-06T01:45:27.571Z,6.23
2017-12-06T01:47:53.960Z,6.27
2017-12-06T01:50:20.419Z,6.27
2017-12-06T01:52:46.828Z,6.10
2017-12-06T01:55:13.260Z,5.73
2017-12-06T01:57:39.936Z,6.47
2017-12-06T02:00:06.612Z,6.20
2017-12-06T02:02:33.435Z,6.10
2017-12-06T02:04:59.943Z,6.37
2017-12-06T02:07:26.317Z,6.00
2017-12-06T02:09:52.705Z,6.20
2017-12-06T02:12:19.158Z,6.17
2017-12-06T02:14:45.553Z,5.50
2017-12-06T02:17:12.208Z,5.80
2017-12-06T02:19:38.675Z,5.77
2017-12-06T02:22:05.130Z,6.40
2017-12-06T02:24:31.709Z,5.80
2017-12-06T02:26:58.225Z,5.97
2017-12-06T02:29:24.706Z,5.40
2017-12-06T02:31:51.117Z,5.37
2017-12-06T02:34:17.600Z,5.10
2017-12-06T02:36:43.988Z,5.60
2017-12-06T02:39:10.420Z,5.63
2017-12-06T02:41:49.197Z,4.80
2017-12-06T02:44:27.591Z,5.30
2017-12-06T02:46:53.936Z,5.53
2017-12-06T02:49:20.424Z,5.70
2017-12-06T02:51:46.820Z,5.53
2017-12-06T02:54:13.228Z,5.60
2017-12-06T02:56:40.010Z,4.67
2017-12-06T02:59:06.559Z,5.07
2017-12-06T03:01:32.992Z,5.33
2017-12-06T03:03:59.348Z,5.33
2017-12-06T03:06:25.755Z,5.60
2017-12-06T03:08:52.160Z,5.63
2017-12-06T03:11:18.560Z,4.73
2017-12-06T03:13:44.936Z,5.20
2017-12-06T03:16:11.407Z,5.47
2017-12-06T03:18:37.793Z,5.13
2017-12-06T03:21:04.156Z,5.47
2017-12-06T03:23:30.642Z,5.70
2017-12-06T03:25:56.976Z,5.80
2017-12-06T03:28:23.338Z,5.43
2017-12-06T03:30:49.891Z,5.40
2017-12-06T03:33:16.320Z,5.13
2017-12-06T03:35:42.668Z,4.83
2017-12-06T03:38:09.052Z,5.27
2017-12-06T03:40:35.387Z,5.20
2017-12-06T03:43:01.748Z,4.77
2017-12-06T03:45:28.147Z,4.83
2017-12-06T03:47:54.540Z,5.03
2017-12-06T03:50:20.881Z,5.00
2017-12-06T03:52:47.308Z,5.37
2017-12-06T03:55:13.655Z,5.33
2017-12-06T03:57:40.007Z,4.90
2017-12-06T04:00:06.407Z,5.53
2017-12-06T04:02:33.947Z,5.60
2017-12-06T04:05:01.000Z,5.47
2017-12-06T04:07:29.153Z,5.70
2017-12-06T04:09:57.041Z,5.37
2017-12-06T04:12:24.244Z,5.80
2017-12-06T04:14:50.976Z,5.20
2017-12-06T04:17:17.317Z,5.80
2017-12-06T04:19:43.700Z,5.90
2017-12-06T04:22:10.081Z,6.27
2017-12-06T04:24:36.439Z,6.57
2017-12-06T04:27:02.885Z,7.27
2017-12-06T04:29:29.301Z,7.27
2017-12-06T04:31:55.683Z,7.97
2017-12-06T04:34:22.039Z,8.10
2017-12-06T04:36:48.468Z,8.33
2017-12-06T04:39:14.864Z,9.73
2017-12-06T04:41:41.401Z,8.40
2017-12-06T04:44:08.006Z,7.80
2017-12-06T04:46:34.373Z,7.53
2017-12-06T04:49:00.744Z,7.87
2017-12-06T04:51:27.169Z,7.37
2017-12-06T04:53:53.559Z,7.70
2017-12-06T04:56:19.909Z,7.50
2017-12-06T04:58:46.286Z,8.57
2017-12-06T05:01:12.644Z,8.30
2017-12-06T05:03:38.991Z,9.27
2017-12-06T05:06:05.494Z,8.77
2017-12-06T05:08:31.844Z,9.90
2017-12-06T05:10:58.188Z,10.90
2017-12-06T05:13:24.620Z,11.57
2017-12-06T05:15:51.024Z,9.93
2017-12-06T05:18:17.353Z,10.40
2017-12-06T05:20:43.753Z,10.47
2017-12-06T05:23:10.105Z,9.90
2017-12-06T05:25:36.492Z,9.43
2017-12-06T05:28:02.986Z,10.10
2017-12-06T05:30:29.343Z,11.43
2017-12-06T05:32:55.684Z,11.00
2017-12-06T05:35:22.080Z,12.40
2017-12-06T05:37:48.442Z,12.93
2017-12-06T05:40:14.817Z,13.30
2017-12-06T05:42:41.228Z,12.00
2017-12-06T05:45:07.612Z,13.13
2017-12-06T05:47:33.995Z,15.87
2017-12-06T05:50:00.412Z,16.87
2017-12-06T05:52:26.753Z,17.80
2017-12-06T05:54:53.135Z,20.97
2017-12-06T05:57:19.507Z,21.20
2017-12-06T05:59:45.848Z,23.30
2017-12-06T06:02:12.225Z,27.53
2017-12-06T06:04:38.637Z,23.53
2017-12-06T06:07:04.985Z,26.60
2017-12-06T06:09:31.838Z,24.13
2017-12-06T06:11:58.240Z,26.83
2017-12-06T06:14:24.584Z,25.87
2017-12-06T06:16:50.967Z,27.77
2017-12-06T06:19:17.484Z,26.50
2017-12-06T06:21:43.879Z,26.37
2017-12-06T06:24:10.368Z,24.43
2017-12-06T06:26:36.827Z,24.50
2017-12-06T06:29:03.222Z,24.97
2017-12-06T06:31:29.573Z,24.70
2017-12-06T06:33:55.948Z,20.73
2017-12-06T06:36:22.316Z,22.73
2017-12-06T06:38:48.680Z,23.57
2017-12-06T06:41:15.140Z,21.63
2017-12-06T06:43:41.592Z,18.53
2017-12-06T06:46:07.943Z,14.73
2017-12-06T06:48:34.528Z,15.30
2017-12-06T06:51:00.868Z,17.57
2017-12-06T06:53:27.229Z,15.23
2017-12-06T06:55:53.646Z,13.17
2017-12-06T06:58:20.013Z,12.53
2017-12-06T07:00:46.355Z,13.93
2017-12-06T07:03:12.859Z,14.93
2017-12-06T07:05:39.238Z,15.60
2017-12-06T07:08:05.676Z,17.17
2017-12-06T07:10:32.094Z,17.80
2017-12-06T07:12:58.515Z,19.73
2017-12-06T07:15:24.906Z,18.20
2017-12-06T07:17:51.356Z,16.80
2017-12-06T07:20:17.717Z,17.90
2017-12-06T07:22:44.092Z,15.97
2017-12-06T07:25:10.541Z,14.60
2017-12-06T07:27:37.101Z,12.50
2017-12-06T07:30:03.607Z,12.90
2017-12-06T07:32:30.178Z,12.07
2017-12-06T07:34:56.643Z,11.53
2017-12-06T07:37:23.096Z,13.20
2017-12-06T07:39:49.884Z,14.00
2017-12-06T07:42:16.424Z,11.70
2017-12-06T07:44:42.820Z,12.60
2017-12-06T07:47:09.234Z,12.60
2017-12-06T07:49:35.724Z,12.40
2017-12-06T07:52:02.145Z,12.43
2017-12-06T07:54:28.541Z,11.60
2017-12-06T07:56:54.904Z,11.87
2017-12-06T07:59:21.260Z,11.30
2017-12-06T08:01:47.648Z,12.17
2017-12-06T08:04:14.018Z,11.33
2017-12-06T08:06:40.366Z,11.93
2017-12-06T08:09:06.764Z,11.27
2017-12-06T08:11:33.169Z,12.83
2017-12-06T08:13:59.556Z,12.37
2017-12-06T08:16:26.089Z,12.47
2017-12-06T08:18:52.467Z,11.10
2017-12-06T08:21:18.899Z,10.27
2017-12-06T08:23:45.328Z,11.50
2017-12-06T08:26:11.729Z,9.10
2017-12-06T08:28:38.100Z,8.33
2017-12-06T08:31:04.512Z,7.70
2017-12-06T08:33:30.885Z,8.00
2017-12-06T08:35:57.476Z,8.03
2017-12-06T08:38:24.120Z,8.30
2017-12-06T08:40:50.601Z,8.23
2017-12-06T08:43:17.054Z,9.40
2017-12-06T08:45:43.487Z,8.10
2017-12-06T08:48:09.900Z,8.67
2017-12-06T08:50:36.284Z,7.57
2017-12-06T08:53:02.693Z,7.20
2017-12-06T08:55:29.144Z,7.40
2017-12-06T08:57:55.468Z,7.90
2017-12-06T09:00:21.893Z,7.63
2017-12-06T09:02:48.350Z,6.47
2017-12-06T09:05:15.344Z,6.70
2017-12-06T09:07:41.771Z,6.57
2017-12-06T09:10:08.164Z,6.37
2017-12-06T09:12:35.664Z,6.63
2017-12-06T09:15:02.152Z,7.40
2017-12-06T09:17:28.589Z,7.20
2017-12-06T09:19:55.092Z,6.80
2017-12-06T09:22:27.911Z,6.43
2017-12-06T09:24:56.005Z,6.47
2017-12-06T09:27:22.372Z,6.43
2017-12-06T09:29:48.809Z,6.90
2017-12-06T09:32:15.168Z,6.33
2017-12-06T09:34:41.592Z,6.43
2017-12-06T09:37:08.009Z,6.13
2017-12-06T09:39:34.396Z,7.10
2017-12-06T09:42:00.821Z,6.73
2017-12-06T09:44:27.247Z,6.80
2017-12-06T09:46:53.608Z,6.37
2017-12-06T09:49:20.361Z,6.60
2017-12-06T09:51:46.790Z,7.00
2017-12-06T09:54:13.256Z,6.27
2017-12-06T09:56:39.785Z,8.67
2017-12-06T09:59:06.173Z,8.00
2017-12-06T10:01:32.552Z,7.30
2017-12-06T10:03:58.912Z,6.57
2017-12-06T10:06:25.319Z,7.27
2017-12-06T10:08:51.668Z,5.13
2017-12-06T10:11:18.241Z,4.83
2017-12-06T10:13:44.636Z,5.90
2017-12-06T10:16:11.019Z,5.20
2017-12-06T10:18:37.757Z,6.00
2017-12-06T10:21:04.297Z,5.13
2017-12-06T10:23:30.852Z,6.23
2017-12-06T10:25:57.276Z,5.70
2017-12-06T10:28:23.817Z,5.27
2017-12-06T10:30:50.232Z,4.93
2017-12-06T10:33:16.666Z,5.33
2017-12-06T10:35:43.176Z,4.80
2017-12-06T10:38:09.637Z,4.37
2017-12-06T10:40:36.195Z,4.77
2017-12-06T10:43:02.674Z,5.53
2017-12-06T10:45:29.076Z,4.80
2017-12-06T10:47:55.536Z,5.33
2017-12-06T10:50:21.924Z,6.27
2017-12-06T10:52:48.312Z,4.70
2017-12-06T10:55:14.696Z,4.33
2017-12-06T10:57:41.135Z,5.53
2017-12-06T11:00:07.569Z,5.37
2017-12-06T11:02:34.037Z,5.17
2017-12-06T11:05:00.460Z,4.30
2017-12-06T11:07:26.841Z,4.60
2017-12-06T11:09:53.201Z,4.90
2017-12-06T11:12:19.594Z,4.50
2017-12-06T11:14:45.936Z,5.00
2017-12-06T11:17:14.209Z,4.70
2017-12-06T11:19:40.741Z,5.17
2017-12-06T11:22:07.192Z,4.37
2017-12-06T11:24:33.584Z,4.17
2017-12-06T11:26:59.972Z,4.33
2017-12-06T11:29:26.332Z,5.10
2017-12-06T11:31:52.940Z,3.87
2017-12-06T11:34:19.455Z,3.90
2017-12-06T11:36:45.876Z,3.83
2017-12-06T11:39:12.243Z,4.13
2017-12-06T11:41:38.651Z,6.23
2017-12-06T11:44:05.001Z,3.83
2017-12-06T11:46:31.381Z,4.43
2017-12-06T11:48:57.788Z,4.70
2017-12-06T11:51:24.153Z,4.23
2017-12-06T11:53:50.499Z,3.73
2017-12-06T11:56:17.095Z,4.00
2017-12-06T11:58:43.492Z,4.73
2017-12-06T12:01:11.788Z,4.17
2017-12-06T12:03:38.316Z,5.03
2017-12-06T12:06:04.665Z,5.10
2017-12-06T12:08:31.033Z,5.23
2017-12-06T12:10:57.527Z,4.70
2017-12-06T12:13:23.901Z,6.03
2017-12-06T12:15:50.377Z,4.90
2017-12-06T12:18:16.889Z,5.03
2017-12-06T12:20:43.349Z,5.37
2017-12-06T12:23:09.716Z,4.40
2017-12-06T12:25:36.156Z,4.53
2017-12-06T12:28:02.528Z,4.77
2017-12-06T12:30:28.872Z,4.03
2017-12-06T12:32:55.254Z,5.13
2017-12-06T12:35:21.648Z,4.77
2017-12-06T12:37:48.073Z,4.97
2017-12-06T12:40:14.639Z,4.50
2017-12-06T12:42:41.880Z,4.77
2017-12-06T12:45:08.344Z,4.43
2017-12-06T12:47:34.916Z,4.30
2017-12-06T12:50:01.384Z,4.87
2017-12-06T12:52:27.840Z,5.07
2017-12-06T12:54:54.332Z,5.30
2017-12-06T12:57:20.788Z,4.23
2017-12-06T12:59:47.244Z,4.40
2017-12-06T13:02:13.840Z,4.30
2017-12-06T13:04:40.290Z,4.27
2017-12-06T13:07:06.760Z,4.20
2017-12-06T13:09:33.248Z,4.70
2017-12-06T13:11:59.720Z,4.87
2017-12-06T13:14:26.179Z,5.17
2017-12-06T13:16:52.672Z,5.20
2017-12-06T13:19:19.121Z,5.70
2017-12-06T13:21:45.578Z,5.73
2017-12-06T13:24:12.079Z,5.50
2017-12-06T13:26:38.589Z,6.53
2017-12-06T13:29:05.136Z,5.37
2017-12-06T13:31:31.641Z,6.10
2017-12-06T13:33:58.080Z,5.47
2017-12-06T13:36:24.488Z,5.57
2017-12-06T13:38:50.990Z,6.13
2017-12-06T13:41:17.480Z,5.93
2017-12-06T13:43:43.925Z,5.83
2017-12-06T13:46:10.557Z,6.00
2017-12-06T13:48:37.104Z,7.17
2017-12-06T13:51:03.549Z,6.47
2017-12-06T13:53:30.044Z,6.10
2017-12-06T13:55:56.607Z,6.87
2017-12-06T13:58:23.056Z,6.67
2017-12-06T14:00:49.520Z,7.93
2017-12-06T14:03:15.924Z,7.60
2017-12-06T14:05:42.357Z,7.37
2017-12-06T14:08:08.816Z,6.60
2017-12-06T14:10:35.196Z,6.70
2017-12-06T14:13:01.682Z,6.97
2017-12-06T14:15:28.165Z,7.80
2017-12-06T14:17:54.620Z,6.90
2017-12-06T14:20:21.209Z,7.87
2017-12-06T14:22:47.744Z,7.00
2017-12-06T14:25:14.401Z,8.63
2017-12-06T14:27:40.968Z,9.00
2017-12-06T14:30:07.608Z,6.70
2017-12-06T14:32:34.092Z,7.97
2017-12-06T14:35:00.682Z,8.60
2017-12-06T14:37:27.164Z,7.80
2017-12-06T14:39:53.817Z,7.40
2017-12-06T14:42:20.280Z,6.90
2017-12-06T14:44:46.796Z,7.40
2017-12-06T14:47:13.223Z,7.27
2017-12-06T14:49:39.677Z,7.10
2017-12-06T14:52:06.148Z,7.00
2017-12-06T14:54:32.710Z,7.40
2017-12-06T14:56:59.161Z,7.57
2017-12-06T14:59:25.782Z,7.13
2017-12-06T15:01:52.225Z,7.80
2017-12-06T15:04:18.678Z,7.70
2017-12-06T15:06:45.237Z,7.57
2017-12-06T15:09:11.725Z,8.10
2017-12-06T15:11:38.188Z,8.77
2017-12-06T15:14:04.692Z,9.07
2017-12-06T15:16:31.151Z,8.63
2017-12-06T15:18:57.661Z,8.33
2017-12-06T15:21:24.140Z,7.80
2017-12-06T15:23:50.764Z,9.17
2017-12-06T15:26:17.200Z,11.50
2017-12-06T15:28:43.800Z,8.70
2017-12-06T15:31:10.249Z,9.37
2017-12-06T15:33:36.714Z,9.57
2017-12-06T15:36:03.369Z,8.77
2017-12-06T15:38:29.844Z,8.40
2017-12-06T15:40:56.424Z,8.03
2017-12-06T15:43:23.010Z,7.73
2017-12-06T15:45:49.548Z,7.33
2017-12-06T15:48:16.065Z,7.90
2017-12-06T15:50:42.584Z,8.60
2017-12-06T15:53:09.028Z,9.20
2017-12-06T15:55:35.493Z,9.20
2017-12-06T15:58:01.941Z,11.57
2017-12-06T16:00:28.405Z,10.97
2017-12-06T16:02:54.833Z,9.60
2017-12-06T16:05:21.296Z,9.23
2017-12-06T16:07:47.792Z,9.27
2017-12-06T16:10:14.236Z,9.17
2017-12-06T16:12:40.687Z,10.77
2017-12-06T16:15:07.154Z,9.53
2017-12-06T16:17:34.203Z,10.60
2017-12-06T16:20:00.679Z,9.03
2017-12-06T16:22:27.151Z,9.47
2017-12-06T16:24:53.630Z,9.13
2017-12-06T16:27:20.140Z,9.47
2017-12-06T16:29:46.585Z,9.93
2017-12-06T16:32:13.043Z,9.80
2017-12-06T16:34:40.733Z,10.07
2017-12-06T16:37:19.421Z,9.23
2017-12-06T16:39:45.956Z,10.30
2017-12-06T16:42:12.398Z,10.83
2017-12-06T16:44:38.853Z,10.37
2017-12-06T16:47:05.287Z,11.50
2017-12-06T16:49:31.730Z,10.13
2017-12-06T16:51:58.194Z,9.63
2017-12-06T16:54:24.616Z,9.90
2017-12-06T16:56:51.019Z,8.80
2017-12-06T16:59:17.445Z,9.20
2017-12-06T17:01:44.152Z,8.93
2017-12-06T17:04:10.620Z,8.70
2017-12-06T17:06:37.354Z,9.97
2017-12-06T17:09:03.872Z,10.33
2017-12-06T17:11:30.308Z,9.10
2017-12-06T17:13:56.846Z,9.03
2017-12-06T17:16:23.328Z,7.77
2017-12-06T17:18:49.792Z,9.47
2017-12-06T17:21:16.264Z,8.80
2017-12-06T17:23:42.837Z,7.43
2017-12-06T17:26:09.260Z,7.80
2017-12-06T17:28:47.769Z,7.83
2017-12-06T17:31:26.396Z,8.73
2017-12-06T17:33:52.784Z,8.37
2017-12-06T17:36:19.214Z,8.37
2017-12-06T17:38:45.797Z,8.63
2017-12-06T17:41:12.337Z,7.83
2017-12-06T17:43:38.791Z,8.33
2017-12-06T17:46:05.245Z,8.87
2017-12-06T17:48:31.760Z,8.50
2017-12-06T17:50:58.225Z,9.03
2017-12-06T17:53:24.680Z,9.57
2017-12-06T17:55:51.173Z,9.17
2017-12-06T17:58:17.594Z,9.43
2017-12-06T18:00:44.037Z,9.70
2017-12-06T18:03:10.528Z,8.60
2017-12-06T18:05:36.964Z,8.50
2017-12-06T18:08:03.409Z,8.53
2017-12-06T18:10:29.913Z,8.17
2017-12-06T18:12:56.369Z,8.33
2017-12-06T18:15:22.832Z,7.47
2017-12-06T18:17:49.371Z,8.07
2017-12-06T18:20:15.785Z,8.30
2017-12-06T18:22:42.234Z,7.97
2017-12-06T18:25:08.732Z,7.27
2017-12-06T18:27:35.141Z,6.80
2017-12-06T18:30:01.591Z,7.53
2017-12-06T18:32:28.075Z,6.83
2017-12-06T18:34:54.610Z,6.90
2017-12-06T18:37:21.102Z,7.20
2017-12-06T18:39:47.782Z,7.50
2017-12-06T18:42:14.420Z,7.10
2017-12-06T18:44:40.905Z,7.00
2017-12-06T18:47:07.363Z,6.63
2017-12-06T18:49:33.749Z,6.30
2017-12-06T18:52:00.217Z,7.40
2017-12-06T18:54:26.660Z,6.67
2017-12-06T18:56:53.047Z,7.27
2017-12-06T18:59:19.435Z,6.17
2017-12-06T19:01:45.863Z,6.13
2017-12-06T19:04:12.284Z,6.73
2017-12-06T19:06:38.705Z,7.20
2017-12-06T19:09:05.144Z,6.07
2017-12-06T19:11:31.603Z,6.30
2017-12-06T19:13:58.021Z,7.23
2017-12-06T19:16:24.452Z,7.33
2017-12-06T19:18:50.816Z,7.33
2017-12-06T19:21:17.489Z,7.10
2017-12-06T19:23:43.921Z,7.13
2017-12-06T19:26:10.296Z,6.53
2017-12-06T19:28:36.676Z,6.83
2017-12-06T19:31:03.111Z,6.93
2017-12-06T19:33:29.521Z,6.67
2017-12-06T19:35:55.872Z,6.73
2017-12-06T19:38:22.276Z,7.20
2017-12-06T19:40:48.633Z,7.20
2017-12-06T19:43:15.020Z,7.03
2017-12-06T19:45:41.452Z,7.17
2017-12-06T19:48:07.809Z,6.87
2017-12-06T19:50:34.140Z,6.93
2017-12-06T19:53:00.532Z,6.50
2017-12-06T19:55:26.896Z,6.33
2017-12-06T19:57:53.236Z,6.53
2017-12-06T20:00:19.772Z,6.53
2017-12-06T20:02:46.109Z,6.00
2017-12-06T20:05:12.488Z,6.63
2017-12-06T20:07:38.896Z,7.30
2017-12-06T20:10:05.232Z,6.50
2017-12-06T20:12:31.590Z,6.67
2017-12-06T20:14:58.064Z,7.23
2017-12-06T20:17:24.588Z,6.07
2017-12-06T20:19:50.952Z,7.00
2017-12-06T20:22:17.397Z,6.60
2017-12-06T20:24:43.749Z,6.40
2017-12-06T20:27:10.102Z,6.63
2017-12-06T20:29:36.493Z,6.50
2017-12-06T20:32:02.900Z,6.87
2017-12-06T20:34:29.249Z,6.93
2017-12-06T20:36:55.629Z,6.50
2017-12-06T20:39:22.010Z,7.80
2017-12-06T20:41:48.397Z,7.23
2017-12-06T20:44:15.022Z,7.00
2017-12-06T20:46:41.408Z,7.07
2017-12-06T20:49:07.828Z,7.50
2017-12-06T20:51:34.320Z,6.90
2017-12-06T20:54:00.792Z,7.47
2017-12-06T20:56:27.172Z,7.80
2017-12-06T20:58:53.582Z,8.37
2017-12-06T21:01:19.958Z,8.20
2017-12-06T21:03:46.329Z,7.63
2017-12-06T21:06:12.753Z,9.73
2017-12-06T21:08:39.186Z,7.27
2017-12-06T21:11:05.615Z,6.77
2017-12-06T21:13:32.072Z,6.87
2017-12-06T21:15:58.497Z,6.77
2017-12-06T21:18:24.929Z,7.37
2017-12-06T21:20:51.453Z,7.67
2017-12-06T21:23:18.032Z,6.97
2017-12-06T21:25:44.445Z,7.57
2017-12-06T21:28:10.870Z,7.90
2017-12-06T21:30:37.400Z,8.57
2017-12-06T21:33:03.804Z,8.83
2017-12-06T21:35:30.232Z,9.87
2017-12-06T21:37:56.608Z,11.30
2017-12-06T21:40:23.248Z,11.53
2017-12-06T21:42:49.656Z,13.27
2017-12-06T21:45:16.008Z,15.83
2017-12-06T21:47:42.349Z,14.73
2017-12-06T21:50:08.759Z,14.43
2017-12-06T21:52:35.132Z,12.80
2017-12-06T21:55:01.540Z,11.80
2017-12-06T21:57:27.928Z,10.60
2017-12-06T21:59:54.308Z,10.97
2017-12-06T22:02:20.652Z,11.23
2017-12-06T22:04:59.336Z,11.47
2017-12-06T22:07:25.716Z,12.07
2017-12-06T22:09:52.088Z,13.30
2017-12-06T22:12:18.534Z,15.43
2017-12-06T22:14:44.923Z,14.90
2017-12-06T22:17:11.273Z,17.20
2017-12-06T22:19:37.679Z,17.93
2017-12-06T22:22:04.048Z,17.80
2017-12-06T22:24:30.393Z,16.87
2017-12-06T22:26:56.784Z,15.33
2017-12-06T22:29:23.149Z,14.77
2017-12-06T22:31:49.488Z,14.63
2017-12-06T22:34:15.924Z,12.33
2017-12-06T22:36:42.290Z,12.73
2017-12-06T22:39:08.659Z,11.90
2017-12-06T22:41:35.068Z,12.10
2017-12-06T22:44:01.436Z,12.17
2017-12-06T22:46:27.780Z,12.93
2017-12-06T22:48:54.187Z,14.33
2017-12-06T22:51:20.646Z,15.37
2017-12-06T22:53:47.065Z,14.77
2017-12-06T22:56:13.548Z,15.03
2017-12-06T22:58:39.896Z,15.80
2017-12-06T23:01:06.305Z,17.80
2017-12-06T23:03:32.759Z,15.33
2017-12-06T23:05:59.121Z,15.30
2017-12-06T23:08:25.533Z,16.80
2017-12-06T23:10:51.943Z,15.53
2017-12-06T23:13:18.360Z,15.73
2017-12-06T23:15:44.748Z,15.43
2017-12-06T23:18:11.177Z,16.10
2017-12-06T23:20:37.539Z,16.67
2017-12-06T23:23:03.906Z,16.93
2017-12-06T23:25:30.352Z,17.40
2017-12-06T23:27:56.752Z,18.70
2017-12-06T23:30:24.273Z,17.27
2017-12-06T23:32:50.687Z,17.73
2017-12-06T23:35:17.059Z,18.70
2017-12-06T23:37:43.431Z,17.80
2017-12-06T23:40:09.896Z,18.03
2017-12-06T23:42:36.283Z,18.83
2017-12-06T23:45:02.712Z,18.87
2017-12-06T23:47:29.129Z,19.13
2017-12-06T23:49:55.515Z,19.47
2017-12-06T23:52:21.888Z,20.43
2017-12-06T23:54:48.292Z,21.60
2017-12-06T23:57:14.672Z,21.13
2017-12-06T23:59:41.015Z,21.73
